< < Back
Terminal Aerodrome Forecast


Current Version              Previous Versions:   1  2  3  4  5  6  7  8  9  

Terminal Aerodrome Forecast

194
FTUS44 KBMX 221100
TAFANB
TAF
KANB 221130Z 2212/2312 VRB03KT P6SM SCT050 BKN100
     FM221500 02007KT P6SM SKC
     FM221600 02009G15KT P6SM SKC
     FM230100 VRB03KT P6SM SKC=



Latest METAR

631
SAUS70 KWBC 221200
MTRANB
METAR KANB 221153Z AUTO VRB04KT 10SM FEW110 18/16 A3006 RMK AO2 SLP174
60002 70002 T01830156 10233 20178 51014


USA.gov is the U.S. government's official web portal to all federal, state and local government web resources and services.